createdAt,value
2018-11-03T00:01:12.500Z,6.13
2018-11-03T00:06:21.406Z,6.97
2018-11-03T00:08:49.933Z,7.83
2018-11-03T00:11:18.346Z,7.20
2018-11-03T00:13:46.779Z,7.30
2018-11-03T00:16:15.172Z,7.87
2018-11-03T00:18:43.634Z,7.90
2018-11-03T00:21:12.129Z,7.73
2018-11-03T00:23:40.605Z,6.40
2018-11-03T00:26:09.056Z,7.50
2018-11-03T00:28:37.580Z,7.30
2018-11-03T00:31:06.077Z,6.73
2018-11-03T00:33:34.585Z,6.80
2018-11-03T00:36:03.056Z,7.07
2018-11-03T00:38:31.516Z,5.73
2018-11-03T00:41:00.092Z,6.53
2018-11-03T00:43:28.555Z,6.40
2018-11-03T00:45:57.055Z,6.80
2018-11-03T00:48:25.494Z,6.60
2018-11-03T00:50:54.041Z,6.40
2018-11-03T00:53:22.551Z,7.03
2018-11-03T00:55:51.015Z,6.47
2018-11-03T00:58:19.485Z,7.27
2018-11-03T01:00:47.880Z,7.20
2018-11-03T01:03:16.266Z,6.40
2018-11-03T01:05:44.742Z,7.00
2018-11-03T01:08:13.220Z,7.30
2018-11-03T01:10:41.646Z,6.67
2018-11-03T01:13:10.058Z,6.87
2018-11-03T01:15:38.499Z,7.20
2018-11-03T01:18:06.985Z,6.40
2018-11-03T01:20:35.425Z,6.90
2018-11-03T01:23:03.893Z,6.70
2018-11-03T01:25:32.278Z,7.10
2018-11-03T01:28:00.676Z,7.50
2018-11-03T01:30:29.111Z,8.00
2018-11-03T01:32:57.528Z,7.50
2018-11-03T01:35:25.994Z,8.13
2018-11-03T01:37:54.443Z,8.20
2018-11-03T01:40:22.846Z,7.67
2018-11-03T01:42:51.345Z,7.33
2018-11-03T01:45:19.809Z,6.90
2018-11-03T01:47:48.317Z,6.30
2018-11-03T01:50:16.718Z,6.80
2018-11-03T01:52:45.191Z,7.03
2018-11-03T01:55:13.611Z,7.07
2018-11-03T01:57:42.147Z,7.63
2018-11-03T02:00:11.462Z,7.60
2018-11-03T02:02:39.970Z,6.97
2018-11-03T02:05:09.084Z,7.00
2018-11-03T02:07:37.537Z,6.27
2018-11-03T02:10:07.387Z,6.40
2018-11-03T02:12:35.849Z,6.33
2018-11-03T02:15:04.354Z,7.03
2018-11-03T02:17:32.885Z,6.63
2018-11-03T02:20:01.297Z,6.73
2018-11-03T02:22:29.667Z,6.00
2018-11-03T02:24:58.070Z,6.70
2018-11-03T02:27:26.496Z,6.80
2018-11-03T02:29:54.889Z,6.10
2018-11-03T02:32:23.316Z,5.77
2018-11-03T02:34:51.746Z,6.43
2018-11-03T02:37:20.154Z,6.60
2018-11-03T02:39:48.595Z,6.47
2018-11-03T02:42:17.154Z,6.53
2018-11-03T02:44:45.583Z,6.90
2018-11-03T02:47:14.035Z,6.70
2018-11-03T02:49:42.474Z,6.70
2018-11-03T02:52:11.045Z,8.00
2018-11-03T02:54:39.488Z,7.37
2018-11-03T02:57:07.892Z,8.20
2018-11-03T02:59:36.347Z,6.90
2018-11-03T03:02:05.234Z,6.30
2018-11-03T03:04:34.936Z,6.40
2018-11-03T03:07:03.445Z,6.73
2018-11-03T03:09:31.902Z,6.67
2018-11-03T03:12:00.347Z,7.00
2018-11-03T03:14:28.750Z,6.27
2018-11-03T03:16:57.141Z,6.27
2018-11-03T03:19:25.553Z,7.03
2018-11-03T03:21:53.994Z,7.00
2018-11-03T03:24:22.412Z,7.90
2018-11-03T03:26:50.836Z,6.30
2018-11-03T03:29:19.313Z,5.83
2018-11-03T03:31:47.761Z,7.23
2018-11-03T03:34:16.141Z,6.00
2018-11-03T03:36:44.518Z,7.93
2018-11-03T03:39:12.932Z,6.77
2018-11-03T03:41:41.384Z,6.13
2018-11-03T03:44:09.817Z,6.67
2018-11-03T03:46:38.314Z,7.37
2018-11-03T03:49:06.768Z,7.00
2018-11-03T03:51:35.192Z,6.60
2018-11-03T03:54:03.753Z,6.40
2018-11-03T03:56:32.186Z,6.50
2018-11-03T03:59:00.959Z,7.13
2018-11-03T04:01:29.373Z,6.17
2018-11-03T04:03:57.792Z,7.83
2018-11-03T04:06:26.229Z,6.90
2018-11-03T04:08:54.634Z,6.93
2018-11-03T04:11:23.092Z,7.67
2018-11-03T04:13:51.539Z,7.30
2018-11-03T04:16:20.273Z,7.70
2018-11-03T04:18:48.684Z,7.20
2018-11-03T04:21:27.030Z,6.00
2018-11-03T04:23:55.604Z,9.40
2018-11-03T04:26:24.049Z,6.60
2018-11-03T04:28:52.487Z,7.10
2018-11-03T04:31:20.950Z,7.43
2018-11-03T04:33:49.394Z,6.90
2018-11-03T04:36:17.917Z,6.37
2018-11-03T04:38:46.356Z,7.70
2018-11-03T04:41:14.786Z,7.43
2018-11-03T04:43:43.209Z,8.10
2018-11-03T04:46:11.615Z,7.00
2018-11-03T04:48:40.082Z,7.03
2018-11-03T04:51:09.024Z,6.33
2018-11-03T04:53:37.423Z,5.80
2018-11-03T04:56:05.856Z,6.57
2018-11-03T04:58:34.277Z,5.80
2018-11-03T05:01:02.703Z,7.67
2018-11-03T05:03:31.175Z,6.77
2018-11-03T05:05:59.577Z,6.30
2018-11-03T05:08:27.999Z,6.63
2018-11-03T05:10:56.420Z,6.87
2018-11-03T05:13:24.800Z,7.53
2018-11-03T05:15:53.204Z,7.00
2018-11-03T05:18:21.655Z,7.63
2018-11-03T05:20:50.069Z,6.80
2018-11-03T05:23:18.497Z,6.80
2018-11-03T05:25:46.935Z,6.80
2018-11-03T05:28:15.396Z,7.10
2018-11-03T05:30:43.792Z,6.93
2018-11-03T05:33:12.166Z,7.03
2018-11-03T05:35:40.567Z,7.17
2018-11-03T05:38:08.998Z,7.30
2018-11-03T05:40:37.450Z,8.10
2018-11-03T05:43:06.175Z,7.90
2018-11-03T05:45:34.600Z,7.70
2018-11-03T05:48:03.105Z,8.17
2018-11-03T05:50:31.542Z,7.27
2018-11-03T05:53:00.066Z,7.03
2018-11-03T05:55:28.502Z,8.20
2018-11-03T05:57:56.915Z,7.30
2018-11-03T06:00:27.281Z,7.87
2018-11-03T06:02:57.082Z,7.33
2018-11-03T06:05:25.523Z,8.23
2018-11-03T06:07:54.018Z,8.77
2018-11-03T06:10:22.442Z,6.90
2018-11-03T06:12:50.894Z,6.93
2018-11-03T06:15:19.532Z,8.00
2018-11-03T06:17:47.924Z,7.77
2018-11-03T06:20:16.363Z,8.47
2018-11-03T06:22:44.781Z,8.20
2018-11-03T06:25:13.245Z,8.33
2018-11-03T06:27:41.653Z,7.87
2018-11-03T06:30:11.324Z,8.70
2018-11-03T06:32:39.984Z,7.50
2018-11-03T06:35:09.530Z,8.40
2018-11-03T06:37:37.987Z,8.87
2018-11-03T06:40:07.712Z,8.80
2018-11-03T06:42:36.778Z,7.87
2018-11-03T06:45:06.065Z,7.57
2018-11-03T06:47:34.525Z,8.10
2018-11-03T06:50:02.980Z,7.63
2018-11-03T06:52:31.364Z,8.40
2018-11-03T06:54:59.767Z,7.90
2018-11-03T06:57:28.336Z,9.00
2018-11-03T06:59:56.740Z,9.87
2018-11-03T07:02:25.157Z,9.00
2018-11-03T07:04:53.601Z,9.67
2018-11-03T07:07:22.065Z,8.10
2018-11-03T07:09:50.533Z,8.40
2018-11-03T07:12:19.057Z,9.00
2018-11-03T07:14:47.448Z,8.73
2018-11-03T07:17:16.312Z,8.47
2018-11-03T07:19:44.814Z,8.57
2018-11-03T07:22:13.276Z,9.47
2018-11-03T07:24:41.765Z,10.20
2018-11-03T07:27:10.227Z,8.73
2018-11-03T07:29:38.714Z,9.37
2018-11-03T07:32:07.359Z,10.77
2018-11-03T07:34:35.765Z,9.20
2018-11-03T07:37:04.229Z,9.77
2018-11-03T07:39:32.663Z,10.73
2018-11-03T07:42:01.221Z,9.43
2018-11-03T07:44:29.660Z,10.43
2018-11-03T07:46:58.030Z,10.40
2018-11-03T07:49:26.528Z,10.23
2018-11-03T07:51:54.946Z,11.40
2018-11-03T07:54:23.415Z,11.70
2018-11-03T07:56:51.795Z,11.23
2018-11-03T07:59:20.215Z,11.47
2018-11-03T08:01:48.708Z,12.10
2018-11-03T08:04:17.148Z,11.40
2018-11-03T08:06:45.656Z,12.13
2018-11-03T08:09:14.163Z,14.70
2018-11-03T08:11:42.572Z,13.60
2018-11-03T08:14:11.066Z,13.07
2018-11-03T08:16:39.492Z,13.50
2018-11-03T08:19:07.980Z,13.07
2018-11-03T08:21:36.429Z,14.93
2018-11-03T08:24:05.100Z,14.70
2018-11-03T08:26:33.492Z,15.00
2018-11-03T08:29:01.906Z,15.70
2018-11-03T08:31:30.387Z,18.03
2018-11-03T08:33:58.784Z,15.53
2018-11-03T08:36:27.223Z,13.83
2018-11-03T08:38:55.644Z,15.23
2018-11-03T08:41:24.084Z,16.37
2018-11-03T08:43:52.568Z,16.27
2018-11-03T08:46:21.003Z,15.10
2018-11-03T08:48:49.488Z,17.50
2018-11-03T08:51:17.849Z,15.93
2018-11-03T08:53:46.261Z,27.27
2018-11-03T08:56:14.736Z,23.33
2018-11-03T08:58:43.179Z,20.57
2018-11-03T09:01:11.625Z,19.73
2018-11-03T09:03:40.042Z,21.47
2018-11-03T09:06:08.510Z,19.93
2018-11-03T09:08:36.968Z,20.27
2018-11-03T09:11:05.595Z,21.10
2018-11-03T09:13:34.052Z,22.27
2018-11-03T09:16:02.548Z,21.83
2018-11-03T09:18:31.033Z,23.60
2018-11-03T09:20:59.532Z,22.23
2018-11-03T09:23:27.990Z,23.30
2018-11-03T09:25:56.456Z,22.53
2018-11-03T09:28:24.926Z,24.90
2018-11-03T09:30:53.367Z,24.83
2018-11-03T09:33:21.766Z,24.70
2018-11-03T09:35:50.152Z,23.07
2018-11-03T09:38:18.645Z,21.50
2018-11-03T09:40:47.047Z,23.00
2018-11-03T09:43:15.564Z,23.80
2018-11-03T09:45:43.988Z,23.10
2018-11-03T09:48:12.464Z,25.00
2018-11-03T09:50:40.962Z,22.90
2018-11-03T09:53:09.381Z,25.10
2018-11-03T09:55:37.828Z,26.50
2018-11-03T09:58:06.257Z,25.70
2018-11-03T10:00:34.716Z,25.27
2018-11-03T10:03:03.163Z,26.20
2018-11-03T10:05:31.586Z,24.13
2018-11-03T10:08:00.180Z,24.97
2018-11-03T10:10:28.598Z,25.50
2018-11-03T10:12:57.077Z,26.43
2018-11-03T10:15:25.536Z,27.20
2018-11-03T10:17:53.984Z,31.77
2018-11-03T10:20:22.519Z,31.07
2018-11-03T10:22:51.100Z,26.17
2018-11-03T10:25:19.963Z,25.33
2018-11-03T10:27:48.896Z,26.03
2018-11-03T10:30:18.082Z,26.27
2018-11-03T10:32:47.183Z,26.33
2018-11-03T10:35:15.824Z,27.33
2018-11-03T10:37:44.664Z,25.70
2018-11-03T10:40:14.968Z,26.93
2018-11-03T10:42:43.716Z,28.60
2018-11-03T10:45:13.453Z,27.47
2018-11-03T10:47:42.105Z,26.20
2018-11-03T10:50:15.642Z,27.27
2018-11-03T10:52:44.882Z,26.20
2018-11-03T10:55:14.776Z,25.00
2018-11-03T10:57:43.560Z,25.90
2018-11-03T11:00:20.625Z,25.70
2018-11-03T11:02:54.280Z,27.90
2018-11-03T11:05:28.129Z,25.20
2018-11-03T11:08:01.884Z,26.60
2018-11-03T11:10:35.643Z,24.60
2018-11-03T11:13:20.361Z,26.40
2018-11-03T11:15:49.853Z,23.63
2018-11-03T11:18:18.274Z,25.50
2018-11-03T11:20:46.720Z,25.67
2018-11-03T11:23:15.174Z,24.30
2018-11-03T11:25:43.641Z,22.50
2018-11-03T11:28:12.139Z,21.33
2018-11-03T11:30:43.109Z,23.93
2018-11-03T11:33:12.934Z,24.40
2018-11-03T11:35:41.724Z,21.57
2018-11-03T11:38:10.856Z,23.27
2018-11-03T11:40:39.853Z,23.63
2018-11-03T11:43:09.850Z,22.70
2018-11-03T11:45:39.597Z,23.07
2018-11-03T11:48:08.053Z,22.57
2018-11-03T11:50:36.549Z,21.80
2018-11-03T11:53:05.361Z,22.17
2018-11-03T11:55:33.815Z,22.20
2018-11-03T11:58:02.661Z,21.40
2018-11-03T12:00:31.191Z,20.27
2018-11-03T12:02:59.663Z,19.00
2018-11-03T12:05:28.168Z,18.67
2018-11-03T12:07:56.716Z,17.67
2018-11-03T12:10:25.200Z,17.70
2018-11-03T12:12:53.700Z,12.50
2018-11-03T12:15:22.211Z,12.90
2018-11-03T12:17:50.643Z,12.67
2018-11-03T12:20:19.104Z,11.83
2018-11-03T12:22:47.575Z,13.63
2018-11-03T12:25:16.025Z,14.60
2018-11-03T12:27:44.513Z,14.13
2018-11-03T12:30:14.947Z,15.83
2018-11-03T12:32:43.498Z,13.80
2018-11-03T12:35:12.094Z,16.53
2018-11-03T12:37:40.913Z,18.57
2018-11-03T12:40:11.768Z,21.70
2018-11-03T12:42:40.145Z,16.93
2018-11-03T12:45:09.248Z,17.30
2018-11-03T12:47:37.815Z,17.00
2018-11-03T12:50:08.660Z,17.13
2018-11-03T12:52:37.121Z,17.10
2018-11-03T12:55:06.876Z,16.30
2018-11-03T12:57:35.365Z,16.47
2018-11-03T13:00:03.953Z,16.63
2018-11-03T13:02:32.438Z,15.87
2018-11-03T13:05:00.909Z,16.80
2018-11-03T13:07:29.381Z,16.23
2018-11-03T13:09:57.899Z,15.10
2018-11-03T13:12:26.341Z,14.60
2018-11-03T13:14:54.781Z,15.30
2018-11-03T13:17:23.262Z,17.43
2018-11-03T13:19:51.685Z,15.17
2018-11-03T13:22:20.137Z,15.23
2018-11-03T13:24:48.835Z,15.37
2018-11-03T13:27:17.295Z,15.33
2018-11-03T13:29:45.747Z,16.80
2018-11-03T13:32:14.196Z,15.80
2018-11-03T13:34:42.753Z,15.37
2018-11-03T13:37:11.217Z,17.00
2018-11-03T13:39:39.608Z,16.30
2018-11-03T13:42:08.147Z,16.47
2018-11-03T13:44:36.597Z,17.00
2018-11-03T13:47:05.166Z,17.87
2018-11-03T13:49:33.568Z,18.67
2018-11-03T13:52:01.990Z,17.13
2018-11-03T13:54:30.451Z,18.00
2018-11-03T13:56:58.929Z,15.97
2018-11-03T13:59:27.335Z,15.50
2018-11-03T14:01:56.087Z,16.30
2018-11-03T14:04:24.596Z,16.43
2018-11-03T14:06:53.110Z,16.70
2018-11-03T14:09:21.536Z,14.37
2018-11-03T14:11:49.948Z,16.00
2018-11-03T14:14:18.371Z,14.67
2018-11-03T14:16:46.848Z,14.70
2018-11-03T14:19:15.275Z,13.37
2018-11-03T14:21:43.763Z,14.87
2018-11-03T14:24:12.185Z,14.63
2018-11-03T14:26:40.625Z,13.40
2018-11-03T14:29:09.190Z,12.23
2018-11-03T14:31:37.593Z,23.13
2018-11-03T14:34:06.290Z,28.90
2018-11-03T14:36:34.725Z,15.60
2018-11-03T14:39:03.281Z,10.77
2018-11-03T14:41:31.773Z,10.00
2018-11-03T14:44:00.191Z,8.13
2018-11-03T14:46:28.626Z,9.33
2018-11-03T14:48:57.134Z,9.63
2018-11-03T14:51:25.541Z,9.93
2018-11-03T14:53:53.989Z,9.40
2018-11-03T14:56:22.435Z,8.73
2018-11-03T14:58:50.890Z,10.03
2018-11-03T15:01:19.354Z,10.03
2018-11-03T15:03:47.898Z,8.77
2018-11-03T15:06:16.434Z,8.10
2018-11-03T15:08:44.829Z,9.33
2018-11-03T15:11:13.285Z,8.63
2018-11-03T15:13:41.784Z,7.90
2018-11-03T15:16:10.187Z,7.10
2018-11-03T15:18:38.590Z,17.53
2018-11-03T15:21:07.086Z,31.23
2018-11-03T15:23:35.768Z,10.13
2018-11-03T15:26:04.259Z,9.57
2018-11-03T15:28:32.724Z,9.30
2018-11-03T15:31:01.198Z,8.53
2018-11-03T15:33:29.693Z,8.13
2018-11-03T15:35:58.160Z,6.90
2018-11-03T15:38:26.568Z,7.00
2018-11-03T15:40:55.026Z,5.60
2018-11-03T15:43:23.551Z,6.93
2018-11-03T15:45:52.232Z,8.40
2018-11-03T15:48:20.702Z,7.20
2018-11-03T15:50:51.797Z,8.53
2018-11-03T15:53:20.591Z,7.50
2018-11-03T15:55:49.017Z,8.37
2018-11-03T15:58:17.452Z,9.67
2018-11-03T16:00:45.876Z,11.13
2018-11-03T16:03:14.315Z,10.37
2018-11-03T16:05:42.738Z,8.47
2018-11-03T16:08:11.186Z,10.60
2018-11-03T16:10:39.646Z,8.00
2018-11-03T16:13:08.250Z,10.27
2018-11-03T16:15:36.734Z,8.00
2018-11-03T16:18:05.358Z,9.30
2018-11-03T16:20:33.868Z,8.33
2018-11-03T16:23:02.373Z,8.00
2018-11-03T16:25:30.799Z,8.63
2018-11-03T16:27:59.238Z,8.47
2018-11-03T16:30:27.734Z,8.10
2018-11-03T16:32:56.109Z,8.17
2018-11-03T16:35:24.576Z,8.03
2018-11-03T16:37:52.969Z,8.23
2018-11-03T16:40:21.413Z,7.50
2018-11-03T16:42:49.820Z,8.97
2018-11-03T16:45:18.260Z,7.40
2018-11-03T16:47:46.784Z,6.73
2018-11-03T16:50:16.236Z,10.80
2018-11-03T16:52:44.874Z,16.90
2018-11-03T16:55:14.111Z,9.47
2018-11-03T16:57:42.518Z,6.40
2018-11-03T17:00:13.964Z,9.20
2018-11-03T17:02:42.742Z,14.20
2018-11-03T17:05:12.419Z,10.57
2018-11-03T17:07:40.852Z,8.30
2018-11-03T17:10:12.768Z,9.40
2018-11-03T17:12:42.616Z,7.70
2018-11-03T17:15:11.356Z,9.37
2018-11-03T17:17:39.932Z,9.60
2018-11-03T17:20:08.769Z,10.00
2018-11-03T17:22:37.542Z,8.63
2018-11-03T17:25:07.173Z,8.37
2018-11-03T17:27:35.619Z,7.07
2018-11-03T17:30:04.445Z,6.73
2018-11-03T17:32:32.977Z,6.37
2018-11-03T17:35:01.399Z,6.73
2018-11-03T17:37:29.813Z,6.17
2018-11-03T17:39:58.333Z,5.20
2018-11-03T17:42:26.782Z,6.30
2018-11-03T17:44:55.214Z,7.47
2018-11-03T17:47:23.663Z,12.80
2018-11-03T17:49:52.164Z,22.03
2018-11-03T17:52:20.773Z,49.90
2018-11-03T17:54:49.247Z,62.20
2018-11-03T17:57:17.774Z,51.90
2018-11-03T17:59:46.187Z,43.23
2018-11-03T18:02:14.648Z,32.37
2018-11-03T18:04:43.075Z,30.53
2018-11-03T18:07:11.520Z,25.60
2018-11-03T18:09:39.930Z,19.67
2018-11-03T18:12:08.348Z,13.70
2018-11-03T18:14:36.794Z,16.10
2018-11-03T18:17:05.541Z,12.80
2018-11-03T18:19:34.020Z,14.40
2018-11-03T18:22:02.405Z,16.13
2018-11-03T18:24:30.883Z,16.47
2018-11-03T18:26:59.501Z,13.93
2018-11-03T18:29:27.919Z,11.23
2018-11-03T18:31:56.372Z,10.80
2018-11-03T18:34:24.849Z,9.10
2018-11-03T18:36:53.355Z,7.00
2018-11-03T18:39:21.829Z,7.80
2018-11-03T18:41:50.258Z,7.67
2018-11-03T18:44:18.696Z,7.23
2018-11-03T18:46:47.224Z,7.90
2018-11-03T18:49:15.606Z,13.93
2018-11-03T18:51:44.100Z,8.90
2018-11-03T18:54:12.587Z,7.60
2018-11-03T18:56:41.045Z,5.47
2018-11-03T18:59:09.514Z,5.20
2018-11-03T19:01:38.000Z,5.00
2018-11-03T19:04:06.492Z,5.00
2018-11-03T19:06:34.931Z,5.07
2018-11-03T19:09:03.638Z,5.37
2018-11-03T19:11:32.049Z,4.83
2018-11-03T19:14:00.490Z,5.23
2018-11-03T19:16:28.946Z,5.13
2018-11-03T19:18:57.559Z,5.33
2018-11-03T19:21:26.004Z,5.67
2018-11-03T19:23:54.482Z,7.73
2018-11-03T19:26:22.928Z,5.83
2018-11-03T19:28:51.403Z,7.30
2018-11-03T19:31:19.850Z,5.30
2018-11-03T19:33:48.316Z,5.47
2018-11-03T19:36:16.755Z,5.30
2018-11-03T19:38:45.174Z,6.17
2018-11-03T19:41:13.610Z,8.60
2018-11-03T19:43:42.000Z,15.90
2018-11-03T19:46:10.437Z,14.03
2018-11-03T19:48:39.515Z,12.50
2018-11-03T19:51:08.001Z,13.13
2018-11-03T19:53:36.480Z,10.50
2018-11-03T19:56:05.229Z,8.03
2018-11-03T19:58:33.761Z,8.03
2018-11-03T20:01:02.183Z,7.90
2018-11-03T20:03:30.630Z,5.90
2018-11-03T20:05:59.033Z,5.50
2018-11-03T20:08:27.471Z,5.40
2018-11-03T20:10:55.902Z,5.30
2018-11-03T20:13:24.375Z,5.47
2018-11-03T20:15:52.905Z,5.40
2018-11-03T20:18:21.387Z,6.23
2018-11-03T20:20:49.780Z,7.10
2018-11-03T20:23:18.191Z,6.10
2018-11-03T20:25:46.657Z,5.30
2018-11-03T20:28:15.097Z,4.83
2018-11-03T20:30:43.550Z,6.83
2018-11-03T20:33:11.997Z,7.03
2018-11-03T20:35:40.455Z,5.63
2018-11-03T20:38:08.927Z,6.90
2018-11-03T20:40:37.336Z,6.43
2018-11-03T20:43:05.878Z,5.80
2018-11-03T20:45:34.284Z,5.70
2018-11-03T20:48:02.786Z,6.30
2018-11-03T20:50:31.225Z,6.13
2018-11-03T20:52:59.681Z,5.20
2018-11-03T20:55:28.155Z,5.70
2018-11-03T20:57:56.657Z,5.70
2018-11-03T21:00:25.128Z,6.33
2018-11-03T21:02:54.475Z,11.63
2018-11-03T21:05:22.897Z,6.77
2018-11-03T21:07:51.398Z,6.33
2018-11-03T21:10:19.833Z,7.40
2018-11-03T21:12:48.274Z,6.00
2018-11-03T21:15:16.692Z,5.90
2018-11-03T21:17:45.214Z,6.07
2018-11-03T21:20:13.640Z,6.00
2018-11-03T21:22:42.149Z,7.60
2018-11-03T21:25:10.608Z,6.17
2018-11-03T21:27:39.056Z,6.10
2018-11-03T21:30:08.823Z,12.77
2018-11-03T21:32:37.317Z,28.27
2018-11-03T21:35:06.030Z,37.13
2018-11-03T21:37:34.485Z,57.30
2018-11-03T21:40:02.995Z,38.87
2018-11-03T21:42:31.433Z,51.97
2018-11-03T21:44:59.980Z,54.07
2018-11-03T21:47:28.455Z,46.27
2018-11-03T21:49:56.906Z,39.70
2018-11-03T21:52:25.359Z,26.83
2018-11-03T21:54:53.871Z,17.50
2018-11-03T21:57:22.326Z,14.20
2018-11-03T21:59:50.857Z,12.90
2018-11-03T22:02:19.309Z,18.13
2018-11-03T22:04:47.785Z,24.00
2018-11-03T22:07:16.266Z,44.50
2018-11-03T22:09:44.738Z,28.40
2018-11-03T22:12:13.940Z,21.40
2018-11-03T22:14:42.384Z,17.90
2018-11-03T22:17:10.791Z,37.23
2018-11-03T22:19:39.249Z,29.10
2018-11-03T22:22:07.680Z,20.60
2018-11-03T22:24:36.181Z,13.30
2018-11-03T22:27:04.905Z,14.40
2018-11-03T22:29:36.310Z,18.70
2018-11-03T22:32:04.872Z,18.37
2018-11-03T22:34:33.358Z,18.47
2018-11-03T22:37:01.771Z,13.87
2018-11-03T22:39:30.173Z,15.00
2018-11-03T22:41:58.650Z,14.57
2018-11-03T22:44:27.090Z,12.80
2018-11-03T22:46:55.607Z,16.50
2018-11-03T22:49:23.999Z,14.27
2018-11-03T22:51:52.509Z,13.23
2018-11-03T22:54:20.886Z,13.70
2018-11-03T22:56:49.333Z,12.80
2018-11-03T22:59:17.887Z,16.13
2018-11-03T23:01:46.326Z,14.87
2018-11-03T23:04:14.772Z,15.63
2018-11-03T23:06:43.183Z,16.70
2018-11-03T23:09:12.206Z,18.43
2018-11-03T23:11:40.984Z,19.57
2018-11-03T23:14:09.473Z,19.30
2018-11-03T23:16:38.477Z,22.57
2018-11-03T23:19:06.931Z,21.77
2018-11-03T23:21:35.376Z,16.10
2018-11-03T23:24:03.836Z,16.33
2018-11-03T23:26:32.302Z,22.20
2018-11-03T23:29:00.713Z,22.73
2018-11-03T23:31:29.159Z,21.33
2018-11-03T23:33:57.537Z,19.50
2018-11-03T23:36:26.014Z,15.30
2018-11-03T23:38:54.436Z,11.63
2018-11-03T23:41:22.903Z,13.33
2018-11-03T23:43:51.398Z,11.80
2018-11-03T23:46:19.826Z,10.73
2018-11-03T23:48:48.336Z,11.07
2018-11-03T23:51:16.669Z,9.37
2018-11-03T23:53:45.102Z,12.53
2018-11-03T23:56:13.553Z,12.10
2018-11-03T23:58:42.013Z,9.43
